Elk, CA (95432)

12:22 AM PDT on July 27, 2016 (GMT -0700)
Navarro Ridge | | Change Station

Elev 446 ft 39.20 °N, 123.76 °W | Updated 4 seconds ago

Clear
Clear
50.8 °F
Feels Like 50.8 °F
N
4.4
Wind Variable Wind from NE
Gusts 6.0 mph

Today
High -- | Low -- °F
--% Chance of Precip.
Yesterday
High -- | Low -- °F
Precip. -- in
Pressure 29.84 in
Visibility 10.0 miles
Clouds Clear
Dew Point 50 °F
Humidity 100%
Rainfall 0.00 in
Snow Depth Not available.
6:11 AM 8:30 PM
Last Quarter, 46% visible
METAR KUKI 270656Z AUTO 00000KT 10SM CLR 23/09 A2987 RMK AO2 SLP104 T02330094
Pressure 29.84 in
Visibility 10.0 miles
Clouds Clear
Dew Point 50 °F
Humidity 100%
Rainfall 0.00 in
Snow Depth Not available.
6:11 AM 8:30 PM
Last Quarter, 46% visible
METAR KUKI 270656Z AUTO 00000KT 10SM CLR 23/09 A2987 RMK AO2 SLP104 T02330094

10-Day Weather Forecast

Almanac

Astronomy

Jul. 27, 2016 Rise Set
Actual Time
Civil Twilight
Nautical Twilight
Astronomical Twilight
Moon
Length of Visible Light
Length of Day
Tomorrow will be .
, % of the Moon is Illuminated

Today's Extremes

State Highs State Lows

Community

WunderPhotos

Upload Photos

1,927,818 photos uploaded!

WunderBlog® & News

Nearby

Air Quality

  Air Quality AQ Index Pollutant
Not available.

Snow Depth

Station Depth Elevation

Earthquake Activity

City Distance Mag. Time & Date
Minimum magnitude displayed is 2.5.

Coastal Water Temperatures

Place Temperature

Stations

Nearby Weather Stations

Station Location Temp. Windchill Dew Point Humidity Wind Precip. Elev Updated Type
                   

Watches & Warnings

There are currently no watches in effect.